Red Lake Airport
CYRL : now visible

Airfield :











YOU CAN JOIN US ON...

 
LOGIN :

Register | Disclaimer

   EN    FR    IT 

 









Legend :    VFR   Marginal VFR   IFR   Intensive IFR   Very Intensive IFR
Visi :
Ceiling :
>= 8 km
>= 3000ft
5 to 8 km
1000 to 3000 ft
1500m to 5 km
500 to 1000 ft
800 to 1500m
200 to 500 ft
< 800m
< 200 ft
Symbols :   Thunderstorms  Fog  Heavy snow  Heavy precipitations  Wind > 20 kt






- Airport Elevation : 1265 ft
- IATA code : YRL


CYRL - Red Lake

CURRENT METAR :
  • 212300Z 33008KT 15SM SCT020 SCT100 SCT240 02/M02 A3016 RMK SC3AC1CI1 CI TR SLP235

EXPIRED METARs :
  • 212200Z 33007KT 270V340 15SM SCT025 BKN140 BKN240 03/M02 A3016 RMK SC4AC1CI2 SLP236
  • 212100Z 27004KT 260V330 15SM SCT025 SCT080 BKN240 03/M03 A3016 RMK SC4AC1CI1 AC TR SLP234

TAF TAF CYRL
Valid from the 21 at 20:00 until the 22 at 02:00 UTC


211941Z 2120/2202 35008KT P6SM OVC015
TEMPO 2120/2124 OVC025
FM220000 36007KT 5SM -SN OVC015
TEMPO 2200/2202 P6SM NSW OVC025 RMK NXT FCST WILL BE ISSUED AT 221045Z
CZWG FIR / North America



MET'MAP, your aeronautical weather chart ! - Copyright ORBIFLY December 2007 - Disclaimer

ORBIFLY MET'MAP TEAM :

Programming & Development : Alexandra Zaïnal
Concept & original design : Baudouin d'Aumeries
Assistance for programming : Marc-Olivier Méhu
Technical & hardware support : Manuel Goepfert

Contact : metmap@orbifly.com




SOURCES & CREDITS :

   NOAA       Earth
Advisory